createdAt,value
2023-02-12T00:05:09.879Z,5.80
2023-02-12T00:15:15.202Z,5.60
2023-02-12T00:25:19.473Z,5.50
2023-02-12T00:35:24.654Z,5.50
2023-02-12T00:45:28.567Z,5.30
2023-02-12T00:55:34.017Z,5.30
2023-02-12T01:05:38.365Z,5.70
2023-02-12T01:15:44.333Z,5.60
2023-02-12T01:25:48.554Z,5.50
2023-02-12T01:35:53.982Z,5.40
2023-02-12T01:46:00.662Z,5.40
2023-02-12T01:56:06.469Z,5.40
2023-02-12T02:06:14.454Z,5.20
2023-02-12T02:16:25.681Z,5.00
2023-02-12T02:27:10.578Z,5.10
2023-02-12T02:37:20.520Z,5.10
2023-02-12T02:47:33.926Z,4.80
2023-02-12T02:57:44.024Z,4.70
2023-02-12T03:07:52.527Z,4.70
2023-02-12T03:18:00.007Z,4.50
2023-02-12T03:28:09.047Z,4.60
2023-02-12T03:38:23.775Z,4.40
2023-02-12T03:48:33.424Z,4.40
2023-02-12T03:58:40.423Z,4.30
2023-02-12T04:08:44.123Z,4.20
2023-02-12T04:18:50.826Z,4.70
2023-02-12T04:29:05.894Z,4.80
2023-02-12T04:39:14.147Z,4.50
2023-02-12T04:49:19.656Z,4.20
2023-02-12T04:59:24.706Z,4.30
2023-02-12T05:09:28.412Z,4.30
2023-02-12T05:19:33.940Z,4.40
2023-02-12T05:29:38.212Z,4.30
2023-02-12T05:39:43.698Z,4.30
2023-02-12T05:49:47.377Z,4.60
2023-02-12T05:59:52.508Z,4.50
2023-02-12T06:09:56.372Z,4.30
2023-02-12T06:20:01.627Z,4.40
2023-02-12T06:30:06.143Z,4.50
2023-02-12T06:40:12.060Z,4.40
2023-02-12T06:50:15.931Z,4.30
2023-02-12T07:00:22.440Z,4.20
2023-02-12T07:10:26.089Z,4.20
2023-02-12T07:20:31.251Z,4.30
2023-02-12T07:30:35.363Z,4.50
2023-02-12T07:40:40.623Z,4.90
2023-02-12T07:50:44.249Z,5.30
2023-02-12T08:00:49.609Z,5.80
2023-02-12T08:10:53.735Z,6.20
2023-02-12T08:21:04.049Z,6.50
2023-02-12T08:31:10.655Z,7.30
2023-02-12T08:41:20.590Z,8.00
2023-02-12T08:51:27.319Z,8.40
2023-02-12T09:01:34.447Z,8.90
2023-02-12T09:11:38.432Z,9.80
2023-02-12T09:21:43.917Z,10.40
2023-02-12T09:31:48.216Z,10.50
2023-02-12T09:42:07.719Z,10.80
2023-02-12T09:52:17.675Z,11.10
2023-02-12T10:02:24.453Z,11.30
2023-02-12T10:12:35.664Z,11.60
2023-02-12T10:22:56.855Z,12.00
2023-02-12T10:33:05.651Z,12.40
2023-02-12T10:43:14.082Z,13.00
2023-02-12T10:53:23.351Z,12.90
2023-02-12T11:03:34.581Z,13.70
2023-02-12T11:13:40.674Z,14.10
2023-02-12T11:23:46.364Z,14.50
2023-02-12T11:34:10.384Z,15.40
2023-02-12T11:44:22.093Z,15.00
2023-02-12T11:54:28.467Z,15.30
2023-02-12T12:04:35.952Z,15.80
2023-02-12T12:15:04.310Z,16.60
2023-02-12T12:25:20.177Z,16.60
2023-02-12T12:35:34.071Z,16.90
2023-02-12T12:46:05.494Z,17.30
2023-02-12T12:56:30.593Z,17.40
2023-02-12T13:07:02.526Z,17.40
2023-02-12T13:17:16.648Z,18.00
2023-02-12T13:27:25.849Z,18.10
2023-02-12T13:37:41.377Z,17.50
2023-02-12T13:47:55.769Z,17.20
2023-02-12T13:58:37.774Z,17.80
2023-02-12T14:08:45.788Z,17.80
2023-02-12T14:18:49.599Z,18.40
2023-02-12T14:28:57.964Z,18.60
2023-02-12T14:39:07.247Z,19.20
2023-02-12T14:49:22.906Z,18.90
2023-02-12T14:59:28.212Z,19.20
2023-02-12T15:09:39.344Z,18.80
2023-02-12T15:19:50.402Z,19.60
2023-02-12T15:29:55.909Z,19.50
2023-02-12T15:40:04.109Z,18.90
2023-02-12T15:50:14.221Z,17.30
2023-02-12T16:00:29.369Z,16.10
2023-02-12T16:10:34.775Z,16.10
2023-02-12T16:20:38.729Z,16.20
2023-02-12T16:30:48.549Z,15.80
2023-02-12T16:41:21.373Z,14.80
2023-02-12T16:51:28.710Z,13.90
2023-02-12T17:01:34.789Z,12.80
2023-02-12T17:11:40.083Z,12.40
2023-02-12T17:21:46.203Z,12.00
2023-02-12T17:31:53.930Z,11.70
2023-02-12T17:42:00.128Z,11.50
2023-02-12T17:52:07.381Z,11.30
2023-02-12T18:02:12.944Z,11.20
2023-02-12T18:12:18.666Z,10.80
2023-02-12T18:22:23.397Z,10.00
2023-02-12T18:32:28.685Z,9.00
2023-02-12T18:42:34.098Z,8.70
2023-02-12T18:52:39.725Z,8.50
2023-02-12T19:02:43.607Z,8.30
2023-02-12T19:12:49.096Z,8.00
2023-02-12T19:22:52.817Z,7.80
2023-02-12T19:32:58.011Z,7.60
2023-02-12T19:43:02.002Z,7.40
2023-02-12T19:53:08.556Z,7.30
2023-02-12T20:03:13.750Z,7.30
2023-02-12T20:13:21.574Z,7.00
2023-02-12T20:23:26.156Z,6.90
2023-02-12T20:33:31.896Z,6.90
2023-02-12T20:43:36.583Z,6.70
2023-02-12T20:53:43.821Z,6.60
2023-02-12T21:03:47.587Z,6.60
2023-02-12T21:14:12.723Z,6.60
2023-02-12T21:24:23.676Z,6.50
2023-02-12T21:34:30.932Z,6.10
2023-02-12T21:44:36.172Z,6.00
2023-02-12T21:54:41.450Z,6.10
2023-02-12T22:04:45.710Z,6.30
2023-02-12T22:14:50.865Z,6.10
2023-02-12T22:24:54.711Z,6.50
2023-02-12T22:35:00.070Z,6.40
2023-02-12T22:45:03.876Z,6.40
2023-02-12T22:55:10.555Z,6.90
2023-02-12T23:05:14.234Z,6.70
2023-02-12T23:15:19.891Z,6.80
2023-02-12T23:25:23.686Z,6.90
2023-02-12T23:35:28.956Z,6.60
2023-02-12T23:45:32.896Z,6.10
2023-02-12T23:55:39.272Z,6.10
